Time;durP1;ratioP1;P1;durP2;ratioP2;P2;SDS_P1;SDS_P2;PMS_P1;PMS_P2;Temp;Humidity;BMP_temperature;BMP_pressure;BME280_temperature;BME280_humidity;BME280_pressure;Samples;Min_cycle;Max_cycle;Signal;HPM_P1;HPM_P2
2022/03/15 00:00:56;;;;;;;28.70;20.33;;;6.10;75.00;;;;;;6277425;22;19996;-65
2022/03/15 00:03:22;;;;;;;30.87;20.27;;;6.10;75.10;;;;;;6278105;22;20006;-65
2022/03/15 00:05:49;;;;;;;29.40;19.13;;;6.00;75.00;;;;;;6277913;22;20007;-65
2022/03/15 00:08:15;;;;;;;29.53;19.93;;;5.90;75.50;;;;;;6278352;22;20055;-65
2022/03/15 00:10:41;;;;;;;28.73;21.70;;;6.00;75.70;;;;;;6277962;22;20330;-65
2022/03/15 00:13:07;;;;;;;30.87;21.53;;;5.90;76.00;;;;;;6277460;22;20007;-65
2022/03/15 00:15:35;;;;;;;30.77;20.53;;;5.90;75.70;;;;;;6277842;22;19996;-66
2022/03/15 00:18:03;;;;;;;34.93;21.10;;;5.90;75.80;;;;;;6278096;22;20331;-65
2022/03/15 00:20:29;;;;;;;35.90;24.20;;;5.90;75.30;;;;;;6277436;22;20054;-66
2022/03/15 00:22:59;;;;;;;36.73;23.90;;;5.90;74.70;;;;;;6276387;22;20004;-65
2022/03/15 00:25:26;;;;;;;35.57;24.60;;;5.90;74.50;;;;;;6274351;22;20014;-65
2022/03/15 00:27:53;;;;;;;34.07;23.90;;;5.90;74.90;;;;;;6274642;22;20436;-66
2022/03/15 00:30:20;;;;;;;36.20;23.60;;;5.80;75.00;;;;;;6277593;22;20130;-64
2022/03/15 00:32:47;;;;;;;39.37;25.17;;;5.70;75.70;;;;;;6277632;22;20004;-65
2022/03/15 00:35:19;;;;;;;36.90;23.77;;;5.70;75.60;;;;;;6277759;22;20329;-65
2022/03/15 00:37:45;;;;;;;31.30;21.60;;;5.80;75.20;;;;;;6277328;22;20087;-65
2022/03/15 00:40:12;;;;;;;33.43;21.50;;;5.80;74.70;;;;;;6277496;22;20007;-65
2022/03/15 00:42:39;;;;;;;36.40;23.37;;;5.80;75.00;;;;;;6277474;22;20015;-65
2022/03/15 00:45:06;;;;;;;33.67;21.30;;;5.70;76.10;;;;;;6277738;22;20061;-65
2022/03/15 00:47:32;;;;;;;33.17;22.23;;;5.70;75.70;;;;;;6277359;22;20050;-65
2022/03/15 00:49:58;;;;;;;30.00;22.00;;;5.70;75.90;;;;;;6277483;22;20067;-65
2022/03/15 00:52:24;;;;;;;35.63;21.77;;;5.70;75.90;;;;;;6277544;22;20075;-65
2022/03/15 00:54:50;;;;;;;35.70;21.50;;;5.70;75.50;;;;;;6277323;22;19995;-66
2022/03/15 00:57:16;;;;;;;34.10;22.47;;;5.70;75.90;;;;;;6277691;22;20078;-64
2022/03/15 00:59:41;;;;;;;33.63;21.33;;;5.70;75.60;;;;;;6277536;22;20074;-66
2022/03/15 01:02:07;;;;;;;33.87;21.70;;;5.70;76.00;;;;;;6277290;22;20004;-65
2022/03/15 01:04:33;;;;;;;32.30;21.67;;;5.70;75.80;;;;;;6277504;22;20331;-65
2022/03/15 01:06:58;;;;;;;38.67;24.83;;;5.70;75.20;;;;;;6277590;22;20012;-65
2022/03/15 01:09:24;;;;;;;35.97;23.27;;;5.70;74.60;;;;;;6278051;22;20008;-65
2022/03/15 01:11:50;;;;;;;35.37;22.23;;;5.70;74.20;;;;;;6277346;22;20413;-65
2022/03/15 01:14:16;;;;;;;37.17;24.53;;;5.70;74.00;;;;;;6277744;22;20426;-65
2022/03/15 01:16:42;;;;;;;35.07;22.50;;;5.70;74.20;;;;;;6277538;22;20000;-65
2022/03/15 01:19:08;;;;;;;35.77;23.30;;;5.70;74.00;;;;;;6277658;22;20338;-65
2022/03/15 01:21:39;;;;;;;35.87;22.63;;;5.60;74.00;;;;;;6277805;22;20015;-72
2022/03/15 01:24:09;;;;;;;35.10;22.33;;;5.60;74.00;;;;;;6277633;22;20018;-72
2022/03/15 01:26:37;;;;;;;33.77;21.77;;;5.60;73.90;;;;;;6277449;22;20000;-65
2022/03/15 01:29:03;;;;;;;31.27;21.03;;;5.60;73.90;;;;;;6250586;22;20007;-65
2022/03/15 01:31:29;;;;;;;33.73;21.20;;;5.60;73.90;;;;;;6276858;22;20445;-65
2022/03/15 01:33:55;;;;;;;29.10;20.20;;;5.50;74.10;;;;;;6277088;22;20447;-65
2022/03/15 01:36:21;;;;;;;30.23;20.40;;;5.50;74.20;;;;;;6277314;22;20014;-65
2022/03/15 01:38:48;;;;;;;30.63;20.10;;;5.40;74.20;;;;;;6277096;22;20036;-65
2022/03/15 01:41:14;;;;;;;34.07;20.70;;;5.50;74.20;;;;;;6276710;22;20402;-65
2022/03/15 01:43:41;;;;;;;26.33;19.07;;;5.40;74.30;;;;;;6277039;22;20000;-65
2022/03/15 01:46:07;;;;;;;27.87;17.37;;;5.40;74.10;;;;;;6277023;22;20004;-64
2022/03/15 01:48:33;;;;;;;31.83;19.03;;;5.50;73.70;;;;;;6276794;22;20106;-65
2022/03/15 01:50:59;;;;;;;29.73;19.00;;;5.40;73.50;;;;;;6277002;22;20011;-65
2022/03/15 01:53:25;;;;;;;28.50;18.63;;;5.40;73.50;;;;;;6276537;22;20057;-65
2022/03/15 01:55:51;;;;;;;27.30;18.97;;;5.40;73.50;;;;;;6276865;22;19996;-65
2022/03/15 01:58:17;;;;;;;29.70;19.87;;;5.40;73.60;;;;;;6274945;22;20011;-64
2022/03/15 02:00:44;;;;;;;31.07;18.27;;;5.30;73.90;;;;;;6273407;22;20070;-66
2022/03/15 02:03:10;;;;;;;33.60;19.07;;;5.20;74.30;;;;;;6273570;22;20008;-65
2022/03/15 02:05:36;;;;;;;29.17;19.60;;;5.20;74.40;;;;;;6275557;22;20039;-66
2022/03/15 02:08:12;;;;;;;32.83;19.73;;;5.20;75.00;;;;;;6276422;22;20008;-65
2022/03/15 02:10:38;;;;;;;33.30;19.23;;;5.20;75.00;;;;;;6276822;22;20069;-65
2022/03/15 02:13:04;;;;;;;29.67;19.40;;;5.10;76.00;;;;;;6276428;22;20071;-65
2022/03/15 02:15:30;;;;;;;32.50;22.07;;;5.00;76.40;;;;;;6276662;22;19992;-65
2022/03/15 02:17:56;;;;;;;29.40;20.77;;;5.00;76.40;;;;;;6276407;22;20003;-65
2022/03/15 02:20:22;;;;;;;31.73;20.60;;;5.00;76.40;;;;;;6276343;22;19996;-65
2022/03/15 02:22:47;;;;;;;28.73;21.10;;;5.00;77.00;;;;;;6276322;22;20010;-65
2022/03/15 02:25:13;;;;;;;27.47;20.07;;;5.00;76.70;;;;;;6276247;22;20002;-64
2022/03/15 02:27:39;;;;;;;32.60;20.47;;;5.00;76.60;;;;;;6276444;22;20014;-65
2022/03/15 02:30:06;;;;;;;31.33;21.33;;;5.10;76.80;;;;;;6276640;22;20027;-65
2022/03/15 02:32:32;;;;;;;32.60;20.83;;;5.10;76.10;;;;;;6276426;22;19995;-65
2022/03/15 02:34:58;;;;;;;33.43;20.13;;;5.10;76.70;;;;;;6276558;22;20030;-66
2022/03/15 02:37:24;;;;;;;32.00;20.57;;;5.10;76.00;;;;;;6276337;22;20000;-65
2022/03/15 02:39:50;;;;;;;31.93;21.43;;;5.20;75.70;;;;;;6276307;22;20006;-65
2022/03/15 02:42:17;;;;;;;36.67;22.10;;;5.20;75.10;;;;;;6276328;22;20091;-65
2022/03/15 02:44:42;;;;;;;32.33;21.07;;;5.20;75.30;;;;;;6276545;22;19995;-71
2022/03/15 02:47:09;;;;;;;32.43;21.53;;;5.20;75.50;;;;;;6276236;22;20035;-65
2022/03/15 02:49:34;;;;;;;30.20;21.53;;;5.20;75.60;;;;;;6276552;22;19995;-65
2022/03/15 02:52:00;;;;;;;32.50;20.97;;;5.10;76.00;;;;;;6276581;22;20066;-65
2022/03/15 02:54:26;;;;;;;32.10;21.13;;;5.10;76.00;;;;;;6276600;22;20011;-65
2022/03/15 02:56:52;;;;;;;30.70;21.40;;;5.10;76.20;;;;;;6276082;22;20425;-65
2022/03/15 02:59:18;;;;;;;32.07;21.30;;;5.10;75.90;;;;;;6276053;22;20019;-65
2022/03/15 03:01:45;;;;;;;30.33;21.33;;;5.10;76.10;;;;;;6276451;22;19996;-65
2022/03/15 03:04:12;;;;;;;28.80;18.73;;;5.10;75.80;;;;;;6276406;22;20003;-66
2022/03/15 03:06:38;;;;;;;30.97;20.70;;;5.10;75.50;;;;;;6276127;22;19995;-65
2022/03/15 03:09:04;;;;;;;27.63;19.07;;;5.20;75.30;;;;;;6276189;22;20020;-65
2022/03/15 03:11:31;;;;;;;26.30;17.43;;;5.10;75.20;;;;;;6276179;22;20004;-65
2022/03/15 03:13:57;;;;;;;27.60;18.23;;;5.10;75.70;;;;;;6276129;22;20012;-65
2022/03/15 03:16:23;;;;;;;26.93;17.70;;;5.00;76.00;;;;;;6276062;22;19996;-65
2022/03/15 03:18:52;;;;;;;22.30;16.67;;;5.00;76.50;;;;;;6276042;22;19999;-65
2022/03/15 03:21:18;;;;;;;23.77;15.53;;;4.90;76.80;;;;;;6276102;22;20012;-65
2022/03/15 03:23:43;;;;;;;20.47;13.97;;;4.90;77.00;;;;;;6276170;22;20319;-65
2022/03/15 03:26:09;;;;;;;19.73;14.17;;;4.90;77.40;;;;;;6276225;22;20004;-65
2022/03/15 03:28:38;;;;;;;19.13;13.83;;;4.90;77.80;;;;;;6275876;22;20018;-65
2022/03/15 03:31:07;;;;;;;17.90;13.67;;;4.90;79.30;;;;;;6276125;22;20014;-65
2022/03/15 03:33:33;;;;;;;16.67;12.63;;;4.80;78.50;;;;;;6276056;22;20027;-65
2022/03/15 03:36:00;;;;;;;19.23;12.87;;;4.80;79.10;;;;;;6275893;22;20426;-65
2022/03/15 03:38:26;;;;;;;17.60;11.93;;;4.80;79.40;;;;;;6275863;22;20003;-65
2022/03/15 03:40:52;;;;;;;16.17;11.80;;;4.90;79.60;;;;;;6276039;22;20464;-65
2022/03/15 03:43:17;;;;;;;16.30;12.07;;;4.90;79.20;;;;;;6275753;22;20000;-65
2022/03/15 03:45:43;;;;;;;15.60;11.60;;;4.90;79.10;;;;;;6276103;22;20441;-65
2022/03/15 03:48:09;;;;;;;18.13;12.10;;;5.00;78.90;;;;;;6275654;22;20011;-65
2022/03/15 03:50:36;;;;;;;15.37;11.10;;;5.00;79.00;;;;;;6276446;22;20438;-65
2022/03/15 03:53:03;;;;;;;18.70;12.80;;;5.10;78.90;;;;;;6275556;22;20003;-66
2022/03/15 03:55:29;;;;;;;23.23;13.10;;;5.10;77.80;;;;;;6276257;22;20024;-65
2022/03/15 03:57:55;;;;;;;22.13;15.03;;;5.10;77.20;;;;;;6276014;22;20000;-66
2022/03/15 04:00:21;;;;;;;27.63;15.87;;;5.00;77.40;;;;;;6276018;22;20000;-66
2022/03/15 04:02:47;;;;;;;23.83;16.87;;;4.90;77.20;;;;;;6275455;22;20382;-65
2022/03/15 04:05:13;;;;;;;30.53;18.23;;;4.80;77.10;;;;;;6275450;22;20020;-66
2022/03/15 04:07:40;;;;;;;27.87;17.93;;;4.80;77.20;;;;;;6275669;22;20011;-65
2022/03/15 04:10:08;;;;;;;26.10;17.57;;;4.80;77.20;;;;;;6275748;22;20323;-66
2022/03/15 04:12:34;;;;;;;24.53;17.20;;;4.70;77.30;;;;;;6275863;22;19995;-65
2022/03/15 04:15:01;;;;;;;24.53;16.27;;;4.70;77.10;;;;;;6275569;22;19996;-66
2022/03/15 04:17:26;;;;;;;25.77;18.10;;;4.70;77.10;;;;;;6275836;22;20426;-65
2022/03/15 04:19:53;;;;;;;23.23;16.23;;;4.70;77.10;;;;;;6275753;22;19996;-66
2022/03/15 04:22:19;;;;;;;26.70;16.70;;;4.60;77.30;;;;;;6276007;22;20322;-66
2022/03/15 04:24:45;;;;;;;29.07;17.07;;;4.50;77.70;;;;;;6276282;22;20098;-66
2022/03/15 04:27:11;;;;;;;20.97;15.27;;;4.50;77.70;;;;;;6275954;22;20449;-65
2022/03/15 04:29:37;;;;;;;23.47;15.23;;;4.50;77.10;;;;;;6275729;22;20000;-65
2022/03/15 04:32:03;;;;;;;27.47;15.43;;;4.60;76.50;;;;;;6275767;22;20002;-66
2022/03/15 04:34:31;;;;;;;27.70;15.57;;;4.50;76.90;;;;;;6248519;22;20438;-66
2022/03/15 04:36:57;;;;;;;25.27;15.73;;;4.40;77.10;;;;;;6275710;22;20003;-66
2022/03/15 04:39:23;;;;;;;23.83;15.83;;;4.30;77.50;;;;;;6275572;22;20472;-66
2022/03/15 04:41:50;;;;;;;22.53;14.23;;;4.30;77.70;;;;;;6275614;22;20019;-65
2022/03/15 04:44:16;;;;;;;24.90;16.43;;;4.20;78.40;;;;;;6275767;22;20146;-65
2022/03/15 04:46:41;;;;;;;20.60;14.97;;;4.20;78.90;;;;;;6276263;22;20004;-66
2022/03/15 04:49:07;;;;;;;22.13;15.50;;;4.20;79.30;;;;;;6277284;22;20000;-66
2022/03/15 04:51:33;;;;;;;21.23;14.60;;;4.30;84.70;;;;;;6277716;22;20314;-66
2022/03/15 04:53:58;;;;;;;23.70;15.67;;;4.20;82.50;;;;;;6277731;22;20008;-66
2022/03/15 04:56:25;;;;;;;23.63;15.93;;;4.00;80.10;;;;;;6277536;22;20004;-67
2022/03/15 04:58:51;;;;;;;18.30;14.50;;;4.10;80.80;;;;;;6277568;22;20042;-65
2022/03/15 05:01:17;;;;;;;28.17;15.73;;;4.10;81.70;;;;;;6277750;22;20004;-66
2022/03/15 05:03:43;;;;;;;24.17;15.43;;;4.10;81.30;;;;;;6277482;22;19999;-65
2022/03/15 05:06:08;;;;;;;21.77;14.37;;;4.20;81.50;;;;;;6277288;22;20000;-73
2022/03/15 05:08:34;;;;;;;24.50;15.70;;;4.20;81.80;;;;;;6277335;22;20485;-70
2022/03/15 05:11:06;;;;;;;25.00;15.07;;;4.30;82.50;;;;;;6277136;22;20513;-66
2022/03/15 05:13:35;;;;;;;25.33;14.23;;;4.40;82.30;;;;;;6277199;22;20103;-66
2022/03/15 05:16:02;;;;;;;23.37;15.40;;;4.50;81.30;;;;;;6277180;22;20438;-66
2022/03/15 05:18:28;;;;;;;23.43;14.80;;;4.60;80.10;;;;;;6276887;22;20058;-65
2022/03/15 05:20:54;;;;;;;21.00;14.23;;;4.60;79.70;;;;;;6276705;22;20000;-66
2022/03/15 05:23:19;;;;;;;22.43;14.07;;;4.70;79.20;;;;;;6277039;22;20004;-65
2022/03/15 05:25:45;;;;;;;26.50;15.30;;;4.70;78.40;;;;;;6277006;22;20011;-66
2022/03/15 05:28:11;;;;;;;26.87;15.33;;;4.70;77.60;;;;;;6276753;22;20066;-66
2022/03/15 05:30:37;;;;;;;25.13;14.87;;;4.70;77.30;;;;;;6276745;22;20067;-65
2022/03/15 05:33:03;;;;;;;24.37;14.87;;;4.70;77.10;;;;;;6277028;22;20034;-66
2022/03/15 05:35:29;;;;;;;27.50;15.00;;;4.70;77.10;;;;;;6276965;22;20010;-66
2022/03/15 05:37:55;;;;;;;33.70;14.67;;;4.70;76.90;;;;;;6277159;22;20075;-66
2022/03/15 05:40:21;;;;;;;26.57;13.97;;;4.60;76.60;;;;;;6277332;22;20003;-66
2022/03/15 05:42:46;;;;;;;22.97;15.00;;;4.60;76.90;;;;;;6276942;22;20022;-66
2022/03/15 05:45:12;;;;;;;23.73;15.70;;;4.50;77.20;;;;;;6277070;22;19996;-66
2022/03/15 05:47:38;;;;;;;25.73;15.60;;;4.40;77.40;;;;;;6277145;22;20015;-66
2022/03/15 05:50:06;;;;;;;36.67;16.97;;;4.40;77.80;;;;;;6277193;22;20008;-66
2022/03/15 05:52:31;;;;;;;34.90;16.97;;;4.30;78.60;;;;;;6277118;22;19999;-65
2022/03/15 05:54:57;;;;;;;25.80;16.07;;;4.30;78.30;;;;;;6276814;22;20071;-66
2022/03/15 05:57:23;;;;;;;26.03;17.17;;;4.30;78.60;;;;;;6276618;22;20372;-65
2022/03/15 05:59:49;;;;;;;27.77;16.40;;;4.30;78.60;;;;;;6276780;22;20378;-66
2022/03/15 06:02:15;;;;;;;30.07;16.90;;;4.40;78.30;;;;;;6276655;22;20046;-66
2022/03/15 06:04:41;;;;;;;31.47;17.10;;;4.50;78.00;;;;;;6276871;22;19996;-66
2022/03/15 06:07:06;;;;;;;34.93;17.67;;;4.50;77.80;;;;;;6276776;22;21067;-65
2022/03/15 06:09:32;;;;;;;29.03;15.80;;;4.60;77.70;;;;;;6277079;22;20027;-66
2022/03/15 06:11:58;;;;;;;30.10;16.50;;;4.60;78.40;;;;;;6277206;22;20387;-66
2022/03/15 06:14:24;;;;;;;28.97;15.17;;;4.70;80.80;;;;;;6276667;22;20327;-66
2022/03/15 06:16:50;;;;;;;35.07;17.57;;;4.70;87.10;;;;;;6276694;22;20010;-65
2022/03/15 06:19:17;;;;;;;27.00;15.37;;;4.70;87.00;;;;;;6276550;22;20011;-66
2022/03/15 06:21:44;;;;;;;26.80;15.00;;;4.70;83.40;;;;;;6276249;22;20003;-65
2022/03/15 06:24:10;;;;;;;21.10;14.93;;;4.70;85.20;;;;;;6276753;22;20004;-66
2022/03/15 06:26:38;;;;;;;30.00;14.57;;;4.70;88.90;;;;;;6276500;22;20071;-66
2022/03/15 06:29:04;;;;;;;36.20;14.63;;;4.80;89.20;;;;;;6276671;22;20031;-65
2022/03/15 06:31:34;;;;;;;22.73;14.23;;;4.80;90.30;;;;;;6276726;22;20003;-65
2022/03/15 06:34:00;;;;;;;19.47;14.03;;;4.80;91.00;;;;;;6276052;22;20000;-66
2022/03/15 06:36:27;;;;;;;25.60;14.30;;;4.80;91.70;;;;;;6276323;22;20000;-66
2022/03/15 06:38:53;;;;;;;21.27;14.53;;;4.90;92.30;;;;;;6276302;22;20007;-66
2022/03/15 06:41:19;;;;;;;23.80;13.93;;;4.90;93.90;;;;;;6276923;22;20107;-66
2022/03/15 06:43:45;;;;;;;25.53;15.10;;;5.00;92.80;;;;;;6276471;22;20046;-65
2022/03/15 06:46:11;;;;;;;21.40;14.97;;;4.90;80.90;;;;;;6276475;22;20009;-66
2022/03/15 06:48:37;;;;;;;32.17;15.73;;;5.00;80.80;;;;;;6276567;22;20050;-65
2022/03/15 06:51:03;;;;;;;22.70;14.67;;;5.00;80.60;;;;;;6276296;22;19999;-65
2022/03/15 06:53:29;;;;;;;29.00;14.47;;;5.20;84.60;;;;;;6276117;22;20015;-66
2022/03/15 06:55:55;;;;;;;24.93;15.67;;;5.10;80.70;;;;;;6276289;22;19996;-66
2022/03/15 06:58:21;;;;;;;23.47;14.90;;;5.20;80.90;;;;;;6276722;22;20071;-65
2022/03/15 07:00:50;;;;;;;22.53;14.40;;;5.20;80.30;;;;;;6276757;22;20488;-66
2022/03/15 07:03:16;;;;;;;23.60;15.40;;;5.30;80.10;;;;;;6276797;22;20378;-66
2022/03/15 07:05:44;;;;;;;25.30;15.27;;;5.30;80.30;;;;;;6276615;22;19995;-66
2022/03/15 07:08:10;;;;;;;28.77;14.93;;;5.40;79.90;;;;;;6276238;22;20015;-66
2022/03/15 07:10:36;;;;;;;25.77;15.00;;;5.50;80.30;;;;;;6275760;22;20292;-66
2022/03/15 07:13:01;;;;;;;27.03;14.87;;;5.50;79.50;;;;;;6276013;22;20327;-65
2022/03/15 07:15:27;;;;;;;26.47;15.23;;;5.60;79.40;;;;;;6276496;22;20447;-65
2022/03/15 07:17:55;;;;;;;23.77;15.30;;;5.70;79.80;;;;;;6276462;22;20027;-66
2022/03/15 07:20:22;;;;;;;25.47;15.23;;;5.70;79.90;;;;;;6276529;22;20453;-71
2022/03/15 07:22:48;;;;;;;24.37;14.53;;;5.80;79.70;;;;;;6276107;22;20004;-72
2022/03/15 07:25:15;;;;;;;23.50;14.53;;;5.90;79.50;;;;;;6276361;22;20010;-66
2022/03/15 07:27:41;;;;;;;23.87;14.13;;;6.00;79.50;;;;;;6276315;22;20123;-72
2022/03/15 07:30:07;;;;;;;23.07;12.37;;;6.10;79.60;;;;;;6276301;22;20011;-67
2022/03/15 07:32:33;;;;;;;24.33;13.93;;;6.10;79.50;;;;;;6276085;22;20057;-66
2022/03/15 07:34:59;;;;;;;26.60;14.00;;;6.20;79.00;;;;;;6276401;22;20007;-66
2022/03/15 07:37:25;;;;;;;23.27;13.67;;;6.30;79.10;;;;;;6276252;22;20004;-65
2022/03/15 07:39:51;;;;;;;34.47;13.80;;;6.40;78.40;;;;;;6276147;22;19995;-66
2022/03/15 07:42:16;;;;;;;20.63;12.60;;;6.50;77.90;;;;;;6275647;22;20019;-67
2022/03/15 07:44:42;;;;;;;24.33;13.03;;;6.50;77.80;;;;;;6275620;22;20077;-65
2022/03/15 07:47:10;;;;;;;17.47;12.90;;;6.60;77.70;;;;;;6275674;22;20007;-65
2022/03/15 07:49:37;;;;;;;22.07;14.13;;;6.70;77.30;;;;;;6275924;22;20026;-66
2022/03/15 07:52:03;;;;;;;32.83;14.13;;;6.80;77.20;;;;;;6276073;22;20430;-66
2022/03/15 07:54:29;;;;;;;25.63;14.47;;;6.80;76.90;;;;;;6275808;22;20014;-65
2022/03/15 07:56:55;;;;;;;28.00;15.40;;;7.00;77.70;;;;;;6276068;22;20004;-65
2022/03/15 07:59:22;;;;;;;29.83;14.87;;;7.00;77.00;;;;;;6276223;22;20004;-66
2022/03/15 08:01:47;;;;;;;24.57;14.83;;;7.20;75.70;;;;;;6275546;22;20007;-65
2022/03/15 08:04:13;;;;;;;23.83;15.77;;;7.20;75.20;;;;;;6275570;22;20438;-66
2022/03/15 08:06:39;;;;;;;26.00;15.73;;;7.30;75.30;;;;;;6274364;22;20004;-66
2022/03/15 08:09:05;;;;;;;28.90;16.40;;;7.40;74.70;;;;;;6275892;22;20007;-67
2022/03/15 08:11:32;;;;;;;28.13;14.43;;;7.50;75.10;;;;;;6276215;22;20334;-66
2022/03/15 08:13:58;;;;;;;18.07;13.33;;;7.60;74.50;;;;;;6275183;22;20000;-66
2022/03/15 08:16:25;;;;;;;23.80;14.33;;;7.70;73.80;;;;;;6275402;22;20007;-66
2022/03/15 08:18:51;;;;;;;26.63;14.93;;;7.70;73.60;;;;;;6276076;22;19999;-66
2022/03/15 08:21:18;;;;;;;28.43;12.30;;;7.80;72.90;;;;;;6277666;22;20374;-66
2022/03/15 08:23:45;;;;;;;23.20;13.10;;;7.90;73.50;;;;;;6277719;22;20014;-66
2022/03/15 08:26:10;;;;;;;18.97;12.93;;;7.90;73.60;;;;;;6278120;22;20141;-66
2022/03/15 08:28:36;;;;;;;22.70;12.47;;;8.00;72.50;;;;;;6277508;22;20007;-66
2022/03/15 08:31:02;;;;;;;17.23;13.20;;;8.10;72.90;;;;;;6278030;22;19999;-67
2022/03/15 08:33:28;;;;;;;26.30;12.50;;;8.20;72.30;;;;;;6277692;22;20091;-66
2022/03/15 08:35:54;;;;;;;20.30;13.70;;;8.30;72.20;;;;;;6278308;22;20071;-66
2022/03/15 08:38:20;;;;;;;21.07;13.27;;;8.40;72.10;;;;;;6278294;22;20003;-66
2022/03/15 08:40:46;;;;;;;17.47;12.47;;;8.40;71.50;;;;;;6278239;22;20083;-66
2022/03/15 08:43:12;;;;;;;23.17;13.60;;;8.40;72.40;;;;;;6278407;22;20094;-66
2022/03/15 08:45:39;;;;;;;24.20;13.87;;;8.40;71.50;;;;;;6277947;22;20450;-67
2022/03/15 08:48:06;;;;;;;21.93;13.70;;;8.50;70.90;;;;;;6278207;22;20430;-66
2022/03/15 08:50:32;;;;;;;25.10;14.07;;;8.50;71.00;;;;;;6277801;22;20000;-66
2022/03/15 08:52:58;;;;;;;29.73;14.00;;;8.50;70.90;;;;;;6277769;22;20003;-67
2022/03/15 08:55:25;;;;;;;24.07;13.13;;;8.50;72.10;;;;;;6277804;22;20008;-66
2022/03/15 08:57:51;;;;;;;24.23;13.43;;;8.50;70.80;;;;;;6277758;22;20011;-66
2022/03/15 09:00:17;;;;;;;20.97;13.17;;;8.50;70.40;;;;;;6277655;22;20465;-66
2022/03/15 09:02:43;;;;;;;27.00;14.13;;;8.60;71.30;;;;;;6278307;22;20003;-66
2022/03/15 09:05:10;;;;;;;19.43;13.07;;;8.60;71.10;;;;;;6277752;22;20312;-66
2022/03/15 09:07:36;;;;;;;21.90;13.07;;;8.70;71.30;;;;;;6278012;22;20094;-67
2022/03/15 09:10:02;;;;;;;20.30;13.13;;;8.70;70.70;;;;;;6277559;22;20014;-68
2022/03/15 09:12:28;;;;;;;27.90;13.10;;;8.80;70.40;;;;;;6277834;22;20057;-66
2022/03/15 09:14:54;;;;;;;18.57;12.77;;;8.80;70.80;;;;;;6277710;22;19996;-66
2022/03/15 09:17:20;;;;;;;21.47;13.30;;;8.90;70.50;;;;;;6277789;22;20354;-66
2022/03/15 09:19:45;;;;;;;21.93;12.80;;;8.90;70.60;;;;;;6277393;22;19996;-66
2022/03/15 09:22:11;;;;;;;19.53;13.33;;;9.00;70.10;;;;;;6277400;22;20004;-66
2022/03/15 09:24:37;;;;;;;25.80;12.37;;;9.00;70.20;;;;;;6277657;22;20421;-66
2022/03/15 09:27:04;;;;;;;20.20;11.53;;;9.00;69.90;;;;;;6277576;22;20317;-67
2022/03/15 09:29:31;;;;;;;21.37;11.80;;;9.10;69.80;;;;;;6277589;22;20004;-66
2022/03/15 09:31:57;;;;;;;18.07;11.77;;;9.10;70.30;;;;;;6277152;22;19999;-67
2022/03/15 09:34:23;;;;;;;17.10;11.03;;;9.20;69.60;;;;;;6277713;22;20003;-66
2022/03/15 09:36:50;;;;;;;23.50;11.33;;;9.20;69.80;;;;;;6277448;22;20338;-66
2022/03/15 09:39:16;;;;;;;17.63;12.10;;;9.30;70.00;;;;;;6277571;22;20461;-66
2022/03/15 09:41:43;;;;;;;20.17;12.20;;;9.40;69.80;;;;;;6277252;22;20062;-66
2022/03/15 09:44:10;;;;;;;20.47;11.90;;;9.40;69.20;;;;;;6277292;22;20004;-66
2022/03/15 09:46:42;;;;;;;20.23;12.03;;;9.40;68.80;;;;;;6277298;22;20000;-66
2022/03/15 09:49:09;;;;;;;18.17;11.55;;;9.50;68.70;;;;;;6277310;22;20016;-66
2022/03/15 09:51:36;;;;;;;14.97;10.90;;;9.50;68.70;;;;;;6277546;22;20000;-75
2022/03/15 09:54:04;;;;;;;17.63;12.17;;;9.60;68.70;;;;;;6277326;22;20046;-66
2022/03/15 09:56:38;;;;;;;15.80;10.43;;;9.60;68.80;;;;;;6277279;22;20466;-66
2022/03/15 09:59:16;;;;;;;17.20;9.93;;;9.60;68.90;;;;;;6277563;22;20008;-66
2022/03/15 10:01:44;;;;;;;15.83;10.07;;;9.70;68.70;;;;;;6277272;22;20126;-66
2022/03/15 10:04:09;;;;;;;18.20;10.40;;;9.70;68.50;;;;;;6277070;22;20438;-63
2022/03/15 10:06:39;;;;;;;14.90;8.67;;;9.70;68.70;;;;;;6277188;22;20034;-66
2022/03/15 10:09:06;;;;;;;14.13;8.13;;;9.80;68.80;;;;;;6277062;22;20091;-66
2022/03/15 10:11:32;;;;;;;18.70;9.00;;;9.80;69.00;;;;;;6277291;22;19996;-66
2022/03/15 10:13:58;;;;;;;17.30;9.17;;;9.90;68.80;;;;;;6276984;22;20303;-65
2022/03/15 10:16:41;;;;;;;18.50;8.70;;;9.90;68.70;;;;;;6277037;22;20003;-66
2022/03/15 10:19:09;;;;;;;12.67;9.17;;;10.00;68.50;;;;;;6277304;22;20004;-66
2022/03/15 10:21:39;;;;;;;15.63;9.37;;;10.00;68.70;;;;;;6277024;22;20004;-66
2022/03/15 10:24:07;;;;;;;15.07;8.93;;;10.00;69.00;;;;;;6276865;22;20070;-66
2022/03/15 10:26:39;;;;;;;15.87;9.43;;;10.00;69.90;;;;;;6276794;22;20370;-66
2022/03/15 10:29:06;;;;;;;13.65;9.15;;;10.10;69.40;;;;;;6276777;22;20008;-66
2022/03/15 10:31:33;;;;;;;20.87;9.10;;;10.10;69.30;;;;;;6277402;22;20047;-66
2022/03/15 10:34:01;;;;;;;14.43;9.70;;;10.10;69.30;;;;;;6276660;22;20398;-66
2022/03/15 10:36:36;;;;;;;11.97;7.60;;;10.20;70.30;;;;;;6277307;22;20359;-66
2022/03/15 10:39:02;;;;;;;11.97;7.73;;;10.20;69.90;;;;;;6250102;22;20362;-72
2022/03/15 10:41:28;;;;;;;13.97;7.67;;;10.20;69.10;;;;;;6276469;22;20051;-74
2022/03/15 10:43:56;;;;;;;13.67;7.57;;;10.30;70.00;;;;;;6276198;22;20142;-66
2022/03/15 10:46:24;;;;;;;9.40;6.77;;;10.20;68.90;;;;;;6275832;22;20023;-66
2022/03/15 10:49:08;;;;;;;9.37;6.80;;;10.30;68.60;;;;;;6276108;22;20012;-72
2022/03/15 10:51:36;;;;;;;14.97;6.60;;;10.30;68.50;;;;;;6276373;22;20003;-66
2022/03/15 10:54:04;;;;;;;12.63;6.53;;;10.40;68.90;;;;;;6276404;22;20485;-66
2022/03/15 10:56:31;;;;;;;14.17;6.57;;;10.40;68.30;;;;;;6276593;22;20474;-66
2022/03/15 10:58:59;;;;;;;10.63;6.50;;;10.40;68.80;;;;;;6275933;22;20000;-73
2022/03/15 11:01:26;;;;;;;12.20;6.60;;;10.50;68.70;;;;;;6276540;22;20008;-70
2022/03/15 11:03:56;;;;;;;10.00;6.20;;;10.50;68.10;;;;;;6276055;22;20145;-68
2022/03/15 11:06:40;;;;;;;11.37;6.93;;;10.60;68.70;;;;;;6276201;22;20046;-68
2022/03/15 11:09:25;;;;;;;11.52;6.45;;;10.70;68.50;;;;;;6276646;22;20019;-67
2022/03/15 11:12:01;;;;;;;12.73;6.20;;;10.80;68.70;;;;;;6276348;22;20004;-73
2022/03/15 11:14:39;;;;;;;14.97;7.07;;;10.80;67.50;;;;;;6276564;22;19999;-67
2022/03/15 11:17:12;;;;;;;11.93;6.57;;;10.90;67.30;;;;;;6276472;22;20082;-68
2022/03/15 11:19:43;;;;;;;9.63;6.82;;;10.90;67.10;;;;;;6276331;22;20107;-68
2022/03/15 11:22:09;;;;;;;12.70;7.10;;;11.00;68.30;;;;;;6275711;22;20035;-69
2022/03/15 11:24:41;;;;;;;12.23;6.97;;;11.00;67.30;;;;;;6276097;22;20003;-69
2022/03/15 11:27:08;;;;;;;9.83;7.30;;;11.00;67.40;;;;;;6275443;22;20062;-68
2022/03/15 11:29:36;;;;;;;12.23;7.20;;;11.00;67.40;;;;;;6276039;22;20419;-68
2022/03/15 11:32:03;;;;;;;8.75;5.97;;;11.00;67.80;;;;;;6275812;22;20007;-73
2022/03/15 11:34:29;;;;;;;14.65;6.95;;;11.00;67.20;;;;;;6276321;22;20006;-67
2022/03/15 11:36:57;;;;;;;14.38;6.30;;;11.00;67.30;;;;;;6276194;22;20086;-73
2022/03/15 11:39:24;;;;;;;11.60;6.15;;;11.10;67.50;;;;;;6276163;22;20004;-68
2022/03/15 11:41:50;;;;;;;10.95;5.72;;;11.10;66.40;;;;;;6275870;22;20016;-68
2022/03/15 11:44:25;;;;;;;10.00;5.93;;;11.20;66.90;;;;;;6276198;22;20008;-68
2022/03/15 11:47:18;;;;;;;7.90;6.28;;;11.20;66.10;;;;;;6275996;22;20438;-66
2022/03/15 11:49:47;;;;;;;12.75;7.10;;;11.20;65.90;;;;;;6205259;22;20016;-68
2022/03/15 11:52:37;;;;;;;13.93;6.95;;;11.20;66.10;;;;;;6275766;22;20007;-65
2022/03/15 11:55:28;;;;;;;10.75;6.60;;;11.20;65.70;;;;;;6276259;22;20035;-68
2022/03/15 11:58:04;;;;;;;9.93;5.82;;;11.20;66.00;;;;;;6277616;22;20074;-68
2022/03/15 12:00:42;;;;;;;12.13;6.32;;;11.30;65.40;;;;;;6278367;22;20396;-73
2022/03/15 12:03:09;;;;;;;16.33;6.20;;;11.30;65.00;;;;;;6277985;22;20000;-73
2022/03/15 12:05:43;;;;;;;14.05;6.28;;;11.30;64.40;;;;;;6278404;22;20081;-71
2022/03/15 12:08:16;;;;;;;14.70;6.05;;;11.30;63.60;;;;;;6274588;22;20008;-68
2022/03/15 12:10:51;;;;;;;9.40;5.80;;;11.30;63.40;;;;;;6274279;22;20010;-68
2022/03/15 12:13:18;;;;;;;15.35;6.50;;;11.30;64.10;;;;;;6276241;22;20100;-68
2022/03/15 12:15:50;;;;;;;11.13;6.97;;;11.30;64.10;;;;;;6278131;22;20330;-69
2022/03/15 12:21:08;;;;;;;11.00;6.53;;;11.30;64.60;;;;;;6279459;22;20007;-69
2022/03/15 12:23:42;;;;;;;11.68;6.28;;;11.30;65.30;;;;;;6277830;22;20010;-66
2022/03/15 12:26:28;;;;;;;7.45;5.70;;;11.20;64.50;;;;;;6277513;22;20010;-72
2022/03/15 12:29:02;;;;;;;9.40;5.82;;;11.20;64.30;;;;;;6277473;22;20012;-69
2022/03/15 12:31:47;;;;;;;10.50;5.97;;;11.10;64.30;;;;;;6278063;22;19996;-68
2022/03/15 12:34:15;;;;;;;13.25;6.75;;;11.10;64.70;;;;;;6277237;22;20008;-69
2022/03/15 12:37:01;;;;;;;12.07;6.35;;;11.10;64.40;;;;;;6277118;22;20000;-69
2022/03/15 12:39:32;;;;;;;15.38;5.97;;;11.10;64.30;;;;;;6275280;22;20145;-69
2022/03/15 12:42:12;;;;;;;11.23;6.50;;;11.10;64.40;;;;;;6274698;22;20458;-69